sensor_id;sensor_type;location;lat;lon;timestamp;P1;durP1;ratioP1;P2;durP2;ratioP2
58250;SDS011;51449;51.676;5.812;2024-03-08T00:01:17;12.33;;;8.53;;
58250;SDS011;51449;51.676;5.812;2024-03-08T00:06:13;16.97;;;9.23;;
58250;SDS011;51449;51.676;5.812;2024-03-08T00:08:35;8.23;;;7.17;;
58250;SDS011;51449;51.676;5.812;2024-03-08T00:10:57;16.77;;;9.83;;
58250;SDS011;51449;51.676;5.812;2024-03-08T00:13:19;20.50;;;9.30;;
58250;SDS011;51449;51.676;5.812;2024-03-08T00:15:41;9.17;;;7.53;;
58250;SDS011;51449;51.676;5.812;2024-03-08T00:18:03;20.27;;;7.87;;
58250;SDS011;51449;51.676;5.812;2024-03-08T00:20:27;14.55;;;7.22;;
58250;SDS011;51449;51.676;5.812;2024-03-08T00:22:49;8.03;;;5.77;;
58250;SDS011;51449;51.676;5.812;2024-03-08T00:25:12;13.77;;;8.47;;
58250;SDS011;51449;51.676;5.812;2024-03-08T00:27:34;10.83;;;6.47;;
58250;SDS011;51449;51.676;5.812;2024-03-08T00:29:57;14.90;;;8.20;;
58250;SDS011;51449;51.676;5.812;2024-03-08T00:32:19;11.87;;;7.07;;
58250;SDS011;51449;51.676;5.812;2024-03-08T00:34:42;11.00;;;7.27;;
58250;SDS011;51449;51.676;5.812;2024-03-08T00:37:04;8.07;;;7.00;;
58250;SDS011;51449;51.676;5.812;2024-03-08T00:39:26;14.07;;;8.23;;
58250;SDS011;51449;51.676;5.812;2024-03-08T00:41:48;15.20;;;9.00;;
58250;SDS011;51449;51.676;5.812;2024-03-08T00:44:10;12.90;;;8.47;;
58250;SDS011;51449;51.676;5.812;2024-03-08T00:46:32;12.17;;;7.03;;
58250;SDS011;51449;51.676;5.812;2024-03-08T00:48:55;15.70;;;7.93;;
58250;SDS011;51449;51.676;5.812;2024-03-08T00:51:18;20.33;;;9.37;;
58250;SDS011;51449;51.676;5.812;2024-03-08T00:53:40;13.90;;;6.83;;
58250;SDS011;51449;51.676;5.812;2024-03-08T00:56:01;9.60;;;6.53;;
58250;SDS011;51449;51.676;5.812;2024-03-08T00:58:23;13.80;;;7.87;;
58250;SDS011;51449;51.676;5.812;2024-03-08T01:00:45;11.73;;;6.77;;
58250;SDS011;51449;51.676;5.812;2024-03-08T01:03:07;10.23;;;6.60;;
58250;SDS011;51449;51.676;5.812;2024-03-08T01:05:29;17.60;;;8.80;;
58250;SDS011;51449;51.676;5.812;2024-03-08T01:07:51;11.40;;;6.67;;
58250;SDS011;51449;51.676;5.812;2024-03-08T01:10:13;10.93;;;7.97;;
58250;SDS011;51449;51.676;5.812;2024-03-08T01:12:35;9.57;;;7.30;;
58250;SDS011;51449;51.676;5.812;2024-03-08T01:14:57;13.03;;;7.73;;
58250;SDS011;51449;51.676;5.812;2024-03-08T01:17:20;10.17;;;7.27;;
58250;SDS011;51449;51.676;5.812;2024-03-08T01:19:42;9.67;;;7.17;;
58250;SDS011;51449;51.676;5.812;2024-03-08T01:24:29;12.67;;;7.23;;
58250;SDS011;51449;51.676;5.812;2024-03-08T01:26:51;9.90;;;8.27;;
58250;SDS011;51449;51.676;5.812;2024-03-08T01:29:13;8.37;;;5.57;;
58250;SDS011;51449;51.676;5.812;2024-03-08T01:31:35;11.00;;;6.10;;
58250;SDS011;51449;51.676;5.812;2024-03-08T01:33:58;17.03;;;7.97;;
58250;SDS011;51449;51.676;5.812;2024-03-08T01:36:21;16.97;;;8.70;;
58250;SDS011;51449;51.676;5.812;2024-03-08T01:38:43;6.17;;;4.53;;
58250;SDS011;51449;51.676;5.812;2024-03-08T01:41:05;12.37;;;7.83;;
58250;SDS011;51449;51.676;5.812;2024-03-08T01:43:27;10.07;;;5.10;;
58250;SDS011;51449;51.676;5.812;2024-03-08T01:45:50;9.25;;;7.82;;
58250;SDS011;51449;51.676;5.812;2024-03-08T01:48:13;13.17;;;7.40;;
58250;SDS011;51449;51.676;5.812;2024-03-08T01:50:39;18.37;;;9.07;;
58250;SDS011;51449;51.676;5.812;2024-03-08T01:53:01;14.40;;;8.27;;
58250;SDS011;51449;51.676;5.812;2024-03-08T01:55:26;12.73;;;8.70;;
58250;SDS011;51449;51.676;5.812;2024-03-08T01:57:48;11.70;;;6.80;;
58250;SDS011;51449;51.676;5.812;2024-03-08T02:00:10;13.80;;;7.37;;
58250;SDS011;51449;51.676;5.812;2024-03-08T02:02:33;12.70;;;7.77;;
58250;SDS011;51449;51.676;5.812;2024-03-08T02:04:56;10.00;;;6.13;;
58250;SDS011;51449;51.676;5.812;2024-03-08T02:07:18;16.27;;;7.90;;
58250;SDS011;51449;51.676;5.812;2024-03-08T02:09:40;12.10;;;6.93;;
58250;SDS011;51449;51.676;5.812;2024-03-08T02:12:02;14.53;;;8.60;;
58250;SDS011;51449;51.676;5.812;2024-03-08T02:14:29;12.50;;;8.07;;
58250;SDS011;51449;51.676;5.812;2024-03-08T02:16:52;13.67;;;8.50;;
58250;SDS011;51449;51.676;5.812;2024-03-08T02:19:15;13.83;;;8.50;;
58250;SDS011;51449;51.676;5.812;2024-03-08T02:21:37;10.00;;;8.07;;
58250;SDS011;51449;51.676;5.812;2024-03-08T02:23:59;14.37;;;9.27;;
58250;SDS011;51449;51.676;5.812;2024-03-08T02:26:21;17.00;;;10.03;;
58250;SDS011;51449;51.676;5.812;2024-03-08T02:28:44;16.73;;;9.07;;
58250;SDS011;51449;51.676;5.812;2024-03-08T02:31:06;16.00;;;9.00;;
58250;SDS011;51449;51.676;5.812;2024-03-08T02:33:29;12.53;;;9.03;;
58250;SDS011;51449;51.676;5.812;2024-03-08T02:35:51;12.00;;;7.63;;
58250;SDS011;51449;51.676;5.812;2024-03-08T02:38:14;13.17;;;8.37;;
58250;SDS011;51449;51.676;5.812;2024-03-08T02:40:38;10.67;;;5.30;;
58250;SDS011;51449;51.676;5.812;2024-03-08T02:43:00;11.37;;;8.47;;
58250;SDS011;51449;51.676;5.812;2024-03-08T02:45:22;13.97;;;7.43;;
58250;SDS011;51449;51.676;5.812;2024-03-08T02:47:44;11.10;;;7.57;;
58250;SDS011;51449;51.676;5.812;2024-03-08T02:50:06;17.13;;;9.27;;
58250;SDS011;51449;51.676;5.812;2024-03-08T02:52:29;17.67;;;9.53;;
58250;SDS011;51449;51.676;5.812;2024-03-08T02:54:52;20.67;;;9.60;;
58250;SDS011;51449;51.676;5.812;2024-03-08T02:57:14;14.97;;;8.03;;
58250;SDS011;51449;51.676;5.812;2024-03-08T02:59:37;11.17;;;6.90;;
58250;SDS011;51449;51.676;5.812;2024-03-08T03:02:01;13.55;;;8.80;;
58250;SDS011;51449;51.676;5.812;2024-03-08T03:04:23;11.40;;;8.23;;
58250;SDS011;51449;51.676;5.812;2024-03-08T03:06:45;18.60;;;8.70;;
58250;SDS011;51449;51.676;5.812;2024-03-08T03:09:07;18.47;;;8.43;;
58250;SDS011;51449;51.676;5.812;2024-03-08T03:11:29;14.67;;;9.20;;
58250;SDS011;51449;51.676;5.812;2024-03-08T03:13:51;10.80;;;7.63;;
58250;SDS011;51449;51.676;5.812;2024-03-08T03:16:20;16.77;;;9.00;;
58250;SDS011;51449;51.676;5.812;2024-03-08T03:18:42;8.27;;;6.57;;
58250;SDS011;51449;51.676;5.812;2024-03-08T03:21:04;18.03;;;7.57;;
58250;SDS011;51449;51.676;5.812;2024-03-08T03:23:29;12.67;;;8.17;;
58250;SDS011;51449;51.676;5.812;2024-03-08T03:25:54;12.13;;;7.90;;
58250;SDS011;51449;51.676;5.812;2024-03-08T03:28:18;14.82;;;8.82;;
58250;SDS011;51449;51.676;5.812;2024-03-08T03:30:46;13.77;;;9.50;;
58250;SDS011;51449;51.676;5.812;2024-03-08T03:33:08;14.17;;;7.57;;
58250;SDS011;51449;51.676;5.812;2024-03-08T03:35:31;18.07;;;10.13;;
58250;SDS011;51449;51.676;5.812;2024-03-08T03:37:54;19.17;;;8.57;;
58250;SDS011;51449;51.676;5.812;2024-03-08T03:40:32;17.87;;;8.43;;
58250;SDS011;51449;51.676;5.812;2024-03-08T03:42:57;13.93;;;7.73;;
58250;SDS011;51449;51.676;5.812;2024-03-08T03:45:19;18.77;;;9.23;;
58250;SDS011;51449;51.676;5.812;2024-03-08T03:47:42;11.37;;;7.20;;
58250;SDS011;51449;51.676;5.812;2024-03-08T03:50:05;15.33;;;8.83;;
58250;SDS011;51449;51.676;5.812;2024-03-08T03:52:28;7.95;;;5.82;;
58250;SDS011;51449;51.676;5.812;2024-03-08T03:54:50;13.80;;;7.70;;
58250;SDS011;51449;51.676;5.812;2024-03-08T03:57:12;16.43;;;8.43;;
58250;SDS011;51449;51.676;5.812;2024-03-08T03:59:34;15.27;;;8.73;;
58250;SDS011;51449;51.676;5.812;2024-03-08T04:01:55;13.33;;;8.70;;
58250;SDS011;51449;51.676;5.812;2024-03-08T04:04:17;13.17;;;7.40;;
58250;SDS011;51449;51.676;5.812;2024-03-08T04:06:39;18.27;;;8.97;;
58250;SDS011;51449;51.676;5.812;2024-03-08T04:09:01;14.87;;;10.00;;
58250;SDS011;51449;51.676;5.812;2024-03-08T04:11:23;17.63;;;8.77;;
58250;SDS011;51449;51.676;5.812;2024-03-08T04:13:45;12.27;;;7.57;;
58250;SDS011;51449;51.676;5.812;2024-03-08T04:16:07;19.03;;;9.57;;
58250;SDS011;51449;51.676;5.812;2024-03-08T04:18:29;14.70;;;8.47;;
58250;SDS011;51449;51.676;5.812;2024-03-08T04:20:51;13.17;;;7.87;;
58250;SDS011;51449;51.676;5.812;2024-03-08T04:23:13;10.97;;;7.50;;
58250;SDS011;51449;51.676;5.812;2024-03-08T04:25:35;11.97;;;7.63;;
58250;SDS011;51449;51.676;5.812;2024-03-08T04:27:57;11.67;;;7.57;;
58250;SDS011;51449;51.676;5.812;2024-03-08T04:30:19;17.47;;;9.33;;
58250;SDS011;51449;51.676;5.812;2024-03-08T04:32:42;13.50;;;7.90;;
58250;SDS011;51449;51.676;5.812;2024-03-08T04:35:04;25.67;;;10.30;;
58250;SDS011;51449;51.676;5.812;2024-03-08T04:37:27;21.23;;;9.13;;
58250;SDS011;51449;51.676;5.812;2024-03-08T04:39:51;14.80;;;7.55;;
58250;SDS011;51449;51.676;5.812;2024-03-08T04:42:13;14.47;;;8.20;;
58250;SDS011;51449;51.676;5.812;2024-03-08T04:44:36;17.10;;;8.15;;
58250;SDS011;51449;51.676;5.812;2024-03-08T04:46:59;12.03;;;7.97;;
58250;SDS011;51449;51.676;5.812;2024-03-08T04:49:22;7.70;;;5.27;;
58250;SDS011;51449;51.676;5.812;2024-03-08T04:51:44;12.83;;;8.00;;
58250;SDS011;51449;51.676;5.812;2024-03-08T04:54:06;11.37;;;7.77;;
58250;SDS011;51449;51.676;5.812;2024-03-08T04:56:28;13.77;;;8.70;;
58250;SDS011;51449;51.676;5.812;2024-03-08T04:58:50;15.20;;;9.03;;
58250;SDS011;51449;51.676;5.812;2024-03-08T05:01:12;16.33;;;7.10;;
58250;SDS011;51449;51.676;5.812;2024-03-08T05:03:34;7.53;;;5.00;;
58250;SDS011;51449;51.676;5.812;2024-03-08T05:05:56;5.83;;;4.20;;
58250;SDS011;51449;51.676;5.812;2024-03-08T05:08:18;17.37;;;8.10;;
58250;SDS011;51449;51.676;5.812;2024-03-08T05:10:41;18.47;;;7.27;;
58250;SDS011;51449;51.676;5.812;2024-03-08T05:13:03;10.00;;;7.57;;
58250;SDS011;51449;51.676;5.812;2024-03-08T05:15:25;12.83;;;9.63;;
58250;SDS011;51449;51.676;5.812;2024-03-08T05:17:47;14.00;;;8.70;;
58250;SDS011;51449;51.676;5.812;2024-03-08T05:20:09;14.83;;;8.57;;
58250;SDS011;51449;51.676;5.812;2024-03-08T05:22:34;13.70;;;6.97;;
58250;SDS011;51449;51.676;5.812;2024-03-08T05:24:55;12.90;;;9.03;;
58250;SDS011;51449;51.676;5.812;2024-03-08T05:27:17;9.70;;;7.17;;
58250;SDS011;51449;51.676;5.812;2024-03-08T05:29:39;21.03;;;9.13;;
58250;SDS011;51449;51.676;5.812;2024-03-08T05:32:01;17.97;;;9.13;;
58250;SDS011;51449;51.676;5.812;2024-03-08T05:34:24;17.83;;;10.23;;
58250;SDS011;51449;51.676;5.812;2024-03-08T05:36:48;10.60;;;6.67;;
58250;SDS011;51449;51.676;5.812;2024-03-08T05:39:16;14.93;;;8.97;;
58250;SDS011;51449;51.676;5.812;2024-03-08T05:41:39;13.73;;;6.87;;
58250;SDS011;51449;51.676;5.812;2024-03-08T05:44:02;8.33;;;6.80;;
58250;SDS011;51449;51.676;5.812;2024-03-08T05:46:24;17.67;;;8.70;;
58250;SDS011;51449;51.676;5.812;2024-03-08T05:48:45;16.43;;;9.17;;
58250;SDS011;51449;51.676;5.812;2024-03-08T05:51:08;17.97;;;6.33;;
58250;SDS011;51449;51.676;5.812;2024-03-08T05:53:29;15.70;;;8.67;;
58250;SDS011;51449;51.676;5.812;2024-03-08T05:55:53;14.33;;;7.33;;
58250;SDS011;51449;51.676;5.812;2024-03-08T05:58:15;18.30;;;9.80;;
58250;SDS011;51449;51.676;5.812;2024-03-08T06:00:37;18.40;;;8.47;;
58250;SDS011;51449;51.676;5.812;2024-03-08T06:02:59;17.23;;;9.40;;
58250;SDS011;51449;51.676;5.812;2024-03-08T06:05:21;16.43;;;9.10;;
58250;SDS011;51449;51.676;5.812;2024-03-08T06:10:08;16.77;;;9.07;;
58250;SDS011;51449;51.676;5.812;2024-03-08T06:12:36;11.80;;;7.40;;
58250;SDS011;51449;51.676;5.812;2024-03-08T06:15:04;14.23;;;8.40;;
58250;SDS011;51449;51.676;5.812;2024-03-08T06:17:26;13.93;;;8.37;;
58250;SDS011;51449;51.676;5.812;2024-03-08T06:19:48;20.97;;;9.40;;
58250;SDS011;51449;51.676;5.812;2024-03-08T06:22:11;17.20;;;8.30;;
58250;SDS011;51449;51.676;5.812;2024-03-08T06:24:33;14.00;;;7.30;;
58250;SDS011;51449;51.676;5.812;2024-03-08T06:29:19;17.37;;;8.63;;
58250;SDS011;51449;51.676;5.812;2024-03-08T06:31:41;13.77;;;9.03;;
58250;SDS011;51449;51.676;5.812;2024-03-08T06:34:03;20.30;;;10.20;;
58250;SDS011;51449;51.676;5.812;2024-03-08T06:36:25;12.23;;;7.23;;
58250;SDS011;51449;51.676;5.812;2024-03-08T06:38:50;15.00;;;6.70;;
58250;SDS011;51449;51.676;5.812;2024-03-08T06:41:14;18.87;;;9.50;;
58250;SDS011;51449;51.676;5.812;2024-03-08T06:43:39;14.33;;;7.63;;
58250;SDS011;51449;51.676;5.812;2024-03-08T06:46:01;17.97;;;10.13;;
58250;SDS011;51449;51.676;5.812;2024-03-08T06:48:25;17.40;;;8.80;;
58250;SDS011;51449;51.676;5.812;2024-03-08T06:50:47;7.90;;;5.63;;
58250;SDS011;51449;51.676;5.812;2024-03-08T06:53:09;22.63;;;10.93;;
58250;SDS011;51449;51.676;5.812;2024-03-08T06:55:31;14.37;;;7.87;;
58250;SDS011;51449;51.676;5.812;2024-03-08T06:57:54;17.83;;;7.87;;
58250;SDS011;51449;51.676;5.812;2024-03-08T07:00:16;13.17;;;8.13;;
58250;SDS011;51449;51.676;5.812;2024-03-08T07:05:03;13.90;;;7.10;;
58250;SDS011;51449;51.676;5.812;2024-03-08T07:07:25;15.17;;;8.70;;
58250;SDS011;51449;51.676;5.812;2024-03-08T07:09:48;16.00;;;9.70;;
58250;SDS011;51449;51.676;5.812;2024-03-08T07:12:10;24.33;;;12.60;;
58250;SDS011;51449;51.676;5.812;2024-03-08T07:14:34;9.50;;;6.05;;
58250;SDS011;51449;51.676;5.812;2024-03-08T07:17:02;15.43;;;8.50;;
58250;SDS011;51449;51.676;5.812;2024-03-08T07:19:27;12.30;;;7.10;;
58250;SDS011;51449;51.676;5.812;2024-03-08T07:21:50;11.57;;;6.77;;
58250;SDS011;51449;51.676;5.812;2024-03-08T07:24:11;16.43;;;10.10;;
58250;SDS011;51449;51.676;5.812;2024-03-08T07:26:36;20.67;;;9.63;;
58250;SDS011;51449;51.676;5.812;2024-03-08T07:28:59;19.10;;;11.02;;
58250;SDS011;51449;51.676;5.812;2024-03-08T07:31:22;24.83;;;12.00;;
58250;SDS011;51449;51.676;5.812;2024-03-08T07:33:56;18.00;;;10.85;;
58250;SDS011;51449;51.676;5.812;2024-03-08T07:36:18;18.67;;;9.13;;
58250;SDS011;51449;51.676;5.812;2024-03-08T07:38:40;20.37;;;10.83;;
58250;SDS011;51449;51.676;5.812;2024-03-08T07:41:02;16.80;;;10.37;;
58250;SDS011;51449;51.676;5.812;2024-03-08T07:43:26;14.85;;;10.05;;
58250;SDS011;51449;51.676;5.812;2024-03-08T07:45:48;10.57;;;7.77;;
58250;SDS011;51449;51.676;5.812;2024-03-08T07:48:10;13.00;;;8.33;;
58250;SDS011;51449;51.676;5.812;2024-03-08T07:50:32;18.80;;;10.20;;
58250;SDS011;51449;51.676;5.812;2024-03-08T07:52:54;21.60;;;11.70;;
58250;SDS011;51449;51.676;5.812;2024-03-08T07:55:16;17.03;;;12.27;;
58250;SDS011;51449;51.676;5.812;2024-03-08T07:57:38;15.70;;;11.80;;
58250;SDS011;51449;51.676;5.812;2024-03-08T08:00:00;20.90;;;11.90;;
58250;SDS011;51449;51.676;5.812;2024-03-08T08:02:29;18.63;;;13.63;;
58250;SDS011;51449;51.676;5.812;2024-03-08T08:04:50;13.60;;;11.57;;
58250;SDS011;51449;51.676;5.812;2024-03-08T08:07:12;20.90;;;13.03;;
58250;SDS011;51449;51.676;5.812;2024-03-08T08:09:36;25.33;;;14.83;;
58250;SDS011;51449;51.676;5.812;2024-03-08T08:11:58;19.53;;;14.40;;
58250;SDS011;51449;51.676;5.812;2024-03-08T08:14:19;20.37;;;14.33;;
58250;SDS011;51449;51.676;5.812;2024-03-08T08:16:42;20.63;;;12.57;;
58250;SDS011;51449;51.676;5.812;2024-03-08T08:19:06;22.65;;;14.38;;
58250;SDS011;51449;51.676;5.812;2024-03-08T08:21:29;28.20;;;15.30;;
58250;SDS011;51449;51.676;5.812;2024-03-08T08:23:50;20.23;;;14.27;;
58250;SDS011;51449;51.676;5.812;2024-03-08T08:26:12;23.67;;;13.33;;
58250;SDS011;51449;51.676;5.812;2024-03-08T08:28:34;22.63;;;15.33;;
58250;SDS011;51449;51.676;5.812;2024-03-08T08:30:56;29.43;;;16.83;;
58250;SDS011;51449;51.676;5.812;2024-03-08T08:33:18;21.83;;;14.50;;
58250;SDS011;51449;51.676;5.812;2024-03-08T08:35:41;20.73;;;13.15;;
58250;SDS011;51449;51.676;5.812;2024-03-08T08:38:07;20.80;;;11.80;;
58250;SDS011;51449;51.676;5.812;2024-03-08T08:40:29;21.50;;;13.53;;
58250;SDS011;51449;51.676;5.812;2024-03-08T08:42:53;21.67;;;13.93;;
58250;SDS011;51449;51.676;5.812;2024-03-08T08:45:15;23.23;;;13.90;;
58250;SDS011;51449;51.676;5.812;2024-03-08T08:47:41;24.30;;;16.30;;
58250;SDS011;51449;51.676;5.812;2024-03-08T08:50:04;20.40;;;13.20;;
58250;SDS011;51449;51.676;5.812;2024-03-08T08:52:28;18.67;;;13.00;;
58250;SDS011;51449;51.676;5.812;2024-03-08T08:54:50;20.37;;;13.87;;
58250;SDS011;51449;51.676;5.812;2024-03-08T08:57:12;19.17;;;10.90;;
58250;SDS011;51449;51.676;5.812;2024-03-08T08:59:35;16.10;;;13.17;;
58250;SDS011;51449;51.676;5.812;2024-03-08T09:02:03;20.77;;;16.77;;
58250;SDS011;51449;51.676;5.812;2024-03-08T09:04:27;23.43;;;20.90;;
58250;SDS011;51449;51.676;5.812;2024-03-08T09:06:50;24.33;;;17.03;;
58250;SDS011;51449;51.676;5.812;2024-03-08T09:09:12;17.33;;;13.30;;
58250;SDS011;51449;51.676;5.812;2024-03-08T09:11:34;14.40;;;11.27;;
58250;SDS011;51449;51.676;5.812;2024-03-08T09:13:57;21.50;;;14.37;;
58250;SDS011;51449;51.676;5.812;2024-03-08T09:16:19;16.10;;;11.87;;
58250;SDS011;51449;51.676;5.812;2024-03-08T09:18:41;19.43;;;12.87;;
58250;SDS011;51449;51.676;5.812;2024-03-08T09:21:03;19.30;;;14.63;;
58250;SDS011;51449;51.676;5.812;2024-03-08T09:23:27;17.60;;;13.67;;
58250;SDS011;51449;51.676;5.812;2024-03-08T09:25:51;31.50;;;22.07;;
58250;SDS011;51449;51.676;5.812;2024-03-08T09:28:13;21.90;;;12.17;;
58250;SDS011;51449;51.676;5.812;2024-03-08T09:30:35;17.80;;;11.60;;
58250;SDS011;51449;51.676;5.812;2024-03-08T09:32:59;18.48;;;11.20;;
58250;SDS011;51449;51.676;5.812;2024-03-08T09:35:21;18.23;;;10.53;;
58250;SDS011;51449;51.676;5.812;2024-03-08T09:37:43;18.77;;;10.93;;
58250;SDS011;51449;51.676;5.812;2024-03-08T09:40:05;18.67;;;9.43;;
58250;SDS011;51449;51.676;5.812;2024-03-08T09:42:32;10.93;;;6.90;;
58250;SDS011;51449;51.676;5.812;2024-03-08T09:44:54;20.43;;;11.30;;
58250;SDS011;51449;51.676;5.812;2024-03-08T09:47:16;18.23;;;10.23;;
58250;SDS011;51449;51.676;5.812;2024-03-08T09:49:40;21.50;;;11.57;;
58250;SDS011;51449;51.676;5.812;2024-03-08T09:52:03;19.83;;;11.87;;
58250;SDS011;51449;51.676;5.812;2024-03-08T09:54:26;18.83;;;11.33;;
58250;SDS011;51449;51.676;5.812;2024-03-08T09:56:48;19.27;;;11.90;;
58250;SDS011;51449;51.676;5.812;2024-03-08T09:59:13;14.30;;;9.50;;
58250;SDS011;51449;51.676;5.812;2024-03-08T10:02:01;24.47;;;12.77;;
58250;SDS011;51449;51.676;5.812;2024-03-08T10:04:24;18.97;;;12.00;;
58250;SDS011;51449;51.676;5.812;2024-03-08T10:06:47;19.93;;;12.03;;
58250;SDS011;51449;51.676;5.812;2024-03-08T10:09:10;21.90;;;12.77;;
58250;SDS011;51449;51.676;5.812;2024-03-08T10:11:32;21.87;;;12.37;;
58250;SDS011;51449;51.676;5.812;2024-03-08T10:13:54;20.33;;;14.77;;
58250;SDS011;51449;51.676;5.812;2024-03-08T10:16:16;22.13;;;14.87;;
58250;SDS011;51449;51.676;5.812;2024-03-08T10:18:38;19.53;;;13.70;;
58250;SDS011;51449;51.676;5.812;2024-03-08T10:21:05;16.90;;;12.23;;
58250;SDS011;51449;51.676;5.812;2024-03-08T10:23:30;16.20;;;13.03;;
58250;SDS011;51449;51.676;5.812;2024-03-08T10:25:55;18.27;;;13.53;;
58250;SDS011;51449;51.676;5.812;2024-03-08T10:28:19;23.17;;;14.87;;
58250;SDS011;51449;51.676;5.812;2024-03-08T10:30:46;16.83;;;12.97;;
58250;SDS011;51449;51.676;5.812;2024-03-08T10:33:09;17.20;;;12.03;;
58250;SDS011;51449;51.676;5.812;2024-03-08T10:35:31;22.20;;;12.63;;
58250;SDS011;51449;51.676;5.812;2024-03-08T10:37:53;15.60;;;12.43;;
58250;SDS011;51449;51.676;5.812;2024-03-08T10:40:25;16.13;;;13.07;;
58250;SDS011;51449;51.676;5.812;2024-03-08T10:42:53;19.30;;;13.97;;
58250;SDS011;51449;51.676;5.812;2024-03-08T10:51:04;15.77;;;12.13;;
58250;SDS011;51449;51.676;5.812;2024-03-08T10:53:27;20.97;;;11.40;;
58250;SDS011;51449;51.676;5.812;2024-03-08T10:55:53;18.33;;;10.60;;
58250;SDS011;51449;51.676;5.812;2024-03-08T10:58:19;33.70;;;15.07;;
58250;SDS011;51449;51.676;5.812;2024-03-08T11:00:44;14.60;;;11.13;;
58250;SDS011;51449;51.676;5.812;2024-03-08T11:03:06;17.27;;;12.33;;
58250;SDS011;51449;51.676;5.812;2024-03-08T11:05:32;19.43;;;14.67;;
58250;SDS011;51449;51.676;5.812;2024-03-08T11:08:02;16.05;;;12.68;;
58250;SDS011;51449;51.676;5.812;2024-03-08T11:10:27;15.20;;;10.73;;
58250;SDS011;51449;51.676;5.812;2024-03-08T11:12:49;23.13;;;12.87;;
58250;SDS011;51449;51.676;5.812;2024-03-08T11:15:11;16.27;;;11.43;;
58250;SDS011;51449;51.676;5.812;2024-03-08T11:17:40;20.70;;;12.50;;
58250;SDS011;51449;51.676;5.812;2024-03-08T11:20:10;16.20;;;11.73;;
58250;SDS011;51449;51.676;5.812;2024-03-08T11:22:53;18.57;;;10.20;;
58250;SDS011;51449;51.676;5.812;2024-03-08T11:25:34;18.57;;;9.47;;
58250;SDS011;51449;51.676;5.812;2024-03-08T11:31:28;18.10;;;10.03;;
58250;SDS011;51449;51.676;5.812;2024-03-08T11:33:29;18.70;;;11.43;;
58250;SDS011;51449;51.676;5.812;2024-03-08T11:35:53;18.53;;;11.83;;
58250;SDS011;51449;51.676;5.812;2024-03-08T11:38:29;13.57;;;7.80;;
58250;SDS011;51449;51.676;5.812;2024-03-08T11:40:53;17.60;;;9.70;;
58250;SDS011;51449;51.676;5.812;2024-03-08T11:43:15;16.83;;;9.97;;
58250;SDS011;51449;51.676;5.812;2024-03-08T11:45:37;17.17;;;9.30;;
58250;SDS011;51449;51.676;5.812;2024-03-08T11:50:25;14.37;;;8.30;;
58250;SDS011;51449;51.676;5.812;2024-03-08T11:52:47;20.37;;;11.10;;
58250;SDS011;51449;51.676;5.812;2024-03-08T11:55:10;15.87;;;10.53;;
58250;SDS011;51449;51.676;5.812;2024-03-08T11:57:34;18.00;;;10.50;;
58250;SDS011;51449;51.676;5.812;2024-03-08T11:59:57;16.90;;;9.27;;
58250;SDS011;51449;51.676;5.812;2024-03-08T12:02:29;14.77;;;9.30;;
58250;SDS011;51449;51.676;5.812;2024-03-08T12:04:58;16.27;;;8.90;;
58250;SDS011;51449;51.676;5.812;2024-03-08T12:07:22;11.97;;;8.10;;
58250;SDS011;51449;51.676;5.812;2024-03-08T12:09:44;15.30;;;8.67;;
58250;SDS011;51449;51.676;5.812;2024-03-08T12:12:44;17.30;;;8.93;;
58250;SDS011;51449;51.676;5.812;2024-03-08T12:15:09;19.53;;;9.10;;
58250;SDS011;51449;51.676;5.812;2024-03-08T12:17:32;19.58;;;10.63;;
58250;SDS011;51449;51.676;5.812;2024-03-08T12:19:55;18.00;;;9.90;;
58250;SDS011;51449;51.676;5.812;2024-03-08T12:22:17;15.80;;;9.17;;
58250;SDS011;51449;51.676;5.812;2024-03-08T12:24:39;17.20;;;10.33;;
58250;SDS011;51449;51.676;5.812;2024-03-08T12:27:17;16.63;;;8.43;;
58250;SDS011;51449;51.676;5.812;2024-03-08T12:29:40;19.17;;;10.43;;
58250;SDS011;51449;51.676;5.812;2024-03-08T12:32:02;19.47;;;9.93;;
58250;SDS011;51449;51.676;5.812;2024-03-08T12:34:26;14.90;;;8.65;;
58250;SDS011;51449;51.676;5.812;2024-03-08T12:36:50;15.73;;;8.67;;
58250;SDS011;51449;51.676;5.812;2024-03-08T12:39:18;15.27;;;8.30;;
58250;SDS011;51449;51.676;5.812;2024-03-08T12:41:49;21.53;;;11.10;;
58250;SDS011;51449;51.676;5.812;2024-03-08T12:46:35;14.23;;;8.17;;
58250;SDS011;51449;51.676;5.812;2024-03-08T12:49:02;18.50;;;10.20;;
58250;SDS011;51449;51.676;5.812;2024-03-08T12:51:25;17.00;;;9.37;;
58250;SDS011;51449;51.676;5.812;2024-03-08T12:53:50;19.73;;;9.33;;
58250;SDS011;51449;51.676;5.812;2024-03-08T12:56:19;19.77;;;11.03;;
58250;SDS011;51449;51.676;5.812;2024-03-08T12:58:52;15.50;;;8.95;;
58250;SDS011;51449;51.676;5.812;2024-03-08T13:01:14;16.33;;;8.17;;
58250;SDS011;51449;51.676;5.812;2024-03-08T13:03:36;18.03;;;9.73;;
58250;SDS011;51449;51.676;5.812;2024-03-08T13:05:58;18.63;;;11.90;;
58250;SDS011;51449;51.676;5.812;2024-03-08T13:08:21;17.80;;;11.10;;
58250;SDS011;51449;51.676;5.812;2024-03-08T13:10:46;14.23;;;8.87;;
58250;SDS011;51449;51.676;5.812;2024-03-08T13:13:10;18.73;;;9.85;;
58250;SDS011;51449;51.676;5.812;2024-03-08T13:15:33;16.23;;;9.20;;
58250;SDS011;51449;51.676;5.812;2024-03-08T13:17:55;18.13;;;11.37;;
58250;SDS011;51449;51.676;5.812;2024-03-08T13:20:19;19.30;;;10.85;;
58250;SDS011;51449;51.676;5.812;2024-03-08T13:22:54;20.10;;;10.30;;
58250;SDS011;51449;51.676;5.812;2024-03-08T13:25:16;17.67;;;10.10;;
58250;SDS011;51449;51.676;5.812;2024-03-08T13:27:39;18.40;;;11.47;;
58250;SDS011;51449;51.676;5.812;2024-03-08T13:30:04;19.30;;;10.57;;
58250;SDS011;51449;51.676;5.812;2024-03-08T13:32:28;20.42;;;13.27;;
58250;SDS011;51449;51.676;5.812;2024-03-08T13:34:51;21.00;;;12.07;;
58250;SDS011;51449;51.676;5.812;2024-03-08T13:37:13;20.13;;;10.90;;
58250;SDS011;51449;51.676;5.812;2024-03-08T13:39:37;16.20;;;11.15;;
58250;SDS011;51449;51.676;5.812;2024-03-08T13:42:02;19.27;;;11.07;;
58250;SDS011;51449;51.676;5.812;2024-03-08T13:44:31;17.40;;;11.40;;
58250;SDS011;51449;51.676;5.812;2024-03-08T13:46:52;16.10;;;8.70;;
58250;SDS011;51449;51.676;5.812;2024-03-08T13:49:15;18.13;;;10.53;;
58250;SDS011;51449;51.676;5.812;2024-03-08T13:51:37;17.30;;;10.23;;
58250;SDS011;51449;51.676;5.812;2024-03-08T13:53:58;20.03;;;10.60;;
58250;SDS011;51449;51.676;5.812;2024-03-08T13:56:21;11.47;;;7.73;;
58250;SDS011;51449;51.676;5.812;2024-03-08T13:58:43;21.87;;;9.63;;
58250;SDS011;51449;51.676;5.812;2024-03-08T14:01:06;12.10;;;8.37;;
58250;SDS011;51449;51.676;5.812;2024-03-08T14:03:33;16.93;;;10.13;;
58250;SDS011;51449;51.676;5.812;2024-03-08T14:05:55;21.87;;;12.00;;
58250;SDS011;51449;51.676;5.812;2024-03-08T14:08:17;17.63;;;10.07;;
58250;SDS011;51449;51.676;5.812;2024-03-08T14:10:39;20.60;;;10.53;;
58250;SDS011;51449;51.676;5.812;2024-03-08T14:13:01;15.87;;;10.10;;
58250;SDS011;51449;51.676;5.812;2024-03-08T14:15:24;19.73;;;10.70;;
58250;SDS011;51449;51.676;5.812;2024-03-08T14:17:54;17.60;;;10.43;;
58250;SDS011;51449;51.676;5.812;2024-03-08T14:20:17;17.10;;;9.83;;
58250;SDS011;51449;51.676;5.812;2024-03-08T14:22:39;17.50;;;10.57;;
58250;SDS011;51449;51.676;5.812;2024-03-08T14:25:01;16.87;;;10.63;;
58250;SDS011;51449;51.676;5.812;2024-03-08T14:27:26;17.60;;;10.07;;
58250;SDS011;51449;51.676;5.812;2024-03-08T14:29:48;17.83;;;10.30;;
58250;SDS011;51449;51.676;5.812;2024-03-08T14:32:10;16.30;;;8.97;;
58250;SDS011;51449;51.676;5.812;2024-03-08T14:34:34;16.83;;;9.98;;